Details From SBMT - MARTE
To SBRJ - Santos-Dumont
Flight Number -
Tags generated
Created
Modified
Stats Distance 195 nm / 362 km
Max Altitude 23,500 ft / 7,163 m
Waypoints 4
Social Downloads 4
Likes 0
Share VATSIM

Download

Looking for another format? Having issues loading an existing format? Contact us
Advertisement - Login to hide

Notes

Basic altitude profile: - Ascent Rate: 2000ft/min - Ascent Speed: 200kts - Cruise Altitude: 17000ft - Cruise Speed: 230kts - Descent Rate: 2000ft/min - Descent Speed: 200kts

Route

SBMT COSME UW63 CANO SBRJ

ID Type Via Altitude Latitude Longitude Leg Dist Tot Dist Heading (true) Name
O SBMT APT - 0 ft / 0 m -23.50912˚ -46.63775˚ - 0 nm - MARTE
COSME FIX - 17,000 ft / 5,182 m -23.27683˚ -45.10717˚ 85 nm 85 nm 81° / 80° -
CANO APT UW63 (AWY-HI) 23,500 ft / 7,163 m -23.11883˚ -44.43383˚ 38 nm 123 nm 76° / 76° -
O SBRJ APT - 0 ft / 0 m -22.91046˚ -43.16313˚ 71 nm 195 nm 80° / 80° Santos-Dumont

Altitude Profile

Advertisement - Login to hide

Weather


0- 5 10 15 20 25 30 35+ Temperature / ° C

Clouds and Precipitation
Forecast for 2017-12-15 18:00 UTC. Updated 33 minutes ago

Ground ~20,000 ft ~40,000 ft Winds

SBMT

Details ICAO SBMT
Name MARTE
Region Brazil
Timezone America/Sao_Paulo (UTC-2.0)
Stats Elevation 2,368 ft / 722 m (AMSL)
Location -23.509120° -46.637754°
Runways 1
Magnetic Variation 21.326° W

METAR

SBMT 151700Z 28004KT 210V340 CAVOK 30/14 Q1015

Decode

TAF

Not found

Departure Runways

ID Width Length Bearing (true) Bearing (mag) Surface Threshold Offset Overrun Length
12 148 ft / 45 m 5,241 ft / 1,597 m 100.34° 121.67° Asphalt 985 ft / 300 m 0 ft / 0 m
30 148 ft / 45 m 5,241 ft / 1,597 m 280.33° 301.66° Asphalt 490 ft / 149 m 0 ft / 0 m

SBRJ

Details ICAO SBRJ (SDU)
Name Santos-Dumont
Region Brazil
Timezone Unknown (UTC+0.0)
Stats Elevation 11 ft / 3 m (AMSL)
Location -22.910460° -43.163133°
Runways 2
Magnetic Variation 22.782° W

METAR

SBRJ 151700Z 17014KT 9999 FEW030 31/20 Q1011

Decode

TAF

TAF SBRJ 150730Z 1512/1524 34005KT 9999 FEW030TX32/1516Z TN25/1524Z BECMG 1512/1514 16010KT RMK PHI

Decode

Destination Runways

ID Width Length Bearing (true) Bearing (mag) Surface Threshold Offset Overrun Length
02L 98 ft / 30 m 4,154 ft / 1,266 m 358.02° 20.80° Asphalt 0 ft / 0 m 80 ft / 24 m
02R 138 ft / 42 m 4,361 ft / 1,329 m 358.01° 20.79° Asphalt 0 ft / 0 m 80 ft / 24 m
20L 138 ft / 42 m 4,361 ft / 1,329 m 178.01° 200.79° Asphalt 0 ft / 0 m 80 ft / 24 m
20R 98 ft / 30 m 4,154 ft / 1,266 m 178.02° 200.80° Asphalt 0 ft / 0 m 95 ft / 29 m

Approach Navaids

Runway Type Ident Frequency Range Bearing (true) Bearing (mag) Slope Elevation
20L Localiser IRJ 111.10 MHz 18 nm / 33 km 172.42° 195.20° - 11 ft / 3 m (AMSL)

Popular Alternatives